Time;durP1;ratioP1;P1;durP2;ratioP2;P2;SDS_P1;SDS_P2;PMS_P1;PMS_P2;Temp;Humidity;BMP_temperature;BMP_pressure;BME280_temperature;BME280_humidity;BME280_pressure;Samples;Min_cycle;Max_cycle;Signal;HPM_P1;HPM_P2
2021/04/25 00:01:42;;;;;;;2.15;1.70;;;;;;;6.82;61.49;98891.50;4983086;28;20037;-76
2021/04/25 00:04:09;;;;;;;2.08;1.63;;;;;;;6.76;61.66;98892.47;4990779;28;20034;-76
2021/04/25 00:06:36;;;;;;;2.03;1.80;;;;;;;6.98;61.26;98891.22;4980757;28;20041;-75
2021/04/25 00:09:03;;;;;;;3.50;1.80;;;;;;;6.87;61.32;98897.50;4973903;28;20575;-76
2021/04/25 00:11:29;;;;;;;2.13;1.77;;;;;;;6.98;60.44;98885.16;4970566;28;20039;-75
2021/04/25 00:13:54;;;;;;;1.65;1.55;;;;;;;6.91;61.28;98889.59;4970542;28;20038;-76
2021/04/25 00:16:22;;;;;;;1.70;1.60;;;;;;;6.92;61.05;98890.44;4971371;28;20019;-76
2021/04/25 00:18:48;;;;;;;3.33;2.10;;;;;;;6.87;61.28;98887.09;4984070;28;20117;-76
2021/04/25 00:21:13;;;;;;;2.22;1.60;;;;;;;7.01;61.13;98877.28;4988739;28;20173;-76
2021/04/25 00:23:39;;;;;;;2.72;1.80;;;;;;;6.88;61.33;98881.84;4989726;28;20042;-76
2021/04/25 00:26:04;;;;;;;3.03;1.88;;;;;;;7.05;60.79;98889.31;4974225;28;20481;-76
2021/04/25 00:28:32;;;;;;;2.83;2.10;;;;;;;6.90;61.65;98882.69;4981395;28;20046;-76
2021/04/25 00:30:57;;;;;;;;;;;;;;;6.92;61.07;98888.72;4990327;28;20034;-76
2021/04/25 00:33:22;;;;;;;2.65;1.75;;;;;;;7.29;59.69;98882.81;4990243;28;19914;-76
2021/04/25 00:35:48;;;;;;;3.67;2.00;;;;;;;7.01;60.71;98869.50;4992047;28;20169;-76
2021/04/25 00:38:16;;;;;;;2.47;1.80;;;;;;;6.96;61.45;98881.72;4990932;28;20026;-75
2021/04/25 00:40:41;;;;;;;2.72;1.77;;;;;;;6.83;61.36;98882.84;4987770;28;20029;-76
2021/04/25 00:43:06;;;;;;;3.00;2.10;;;;;;;6.91;61.64;98881.78;4989650;28;20293;-76
2021/04/25 00:45:32;;;;;;;3.40;2.13;;;;;;;7.38;60.37;98882.63;4989404;28;20026;-76
2021/04/25 00:47:58;;;;;;;3.10;2.08;;;;;;;6.99;60.80;98887.72;4983382;28;20050;-77
2021/04/25 00:50:25;;;;;;;2.35;1.90;;;;;;;6.87;62.03;98889.69;4971663;28;20117;-76
2021/04/25 00:52:54;;;;;;;3.65;1.98;;;;;;;6.70;61.97;98880.47;4970112;28;20746;-76
2021/04/25 00:55:22;;;;;;;3.53;1.90;;;;;;;6.81;61.43;98887.19;4970300;28;20035;-76
2021/04/25 00:57:48;;;;;;;4.05;2.00;;;;;;;6.85;62.18;98878.47;4974941;28;20069;-77
2021/04/25 01:00:14;;;;;;;3.65;1.75;;;;;;;6.72;61.60;98883.03;4991720;28;20111;-77
2021/04/25 01:02:40;;;;;;;3.28;1.98;;;;;;;6.64;62.24;98874.50;4983064;28;20110;-76
2021/04/25 01:05:08;;;;;;;2.95;2.00;;;;;;;6.76;61.89;98873.41;4991002;28;20046;-77
2021/04/25 01:07:36;;;;;;;2.20;1.73;;;;;;;6.94;61.24;98873.09;4984120;28;20498;-77
2021/04/25 01:10:03;;;;;;;2.78;1.90;;;;;;;7.15;61.04;98867.47;4992242;28;20030;-78
2021/04/25 01:12:28;;;;;;;2.42;1.80;;;;;;;6.74;62.02;98872.56;4991182;28;20042;-75
2021/04/25 01:14:53;;;;;;;4.70;1.98;;;;;;;6.69;61.75;98876.16;4989814;28;20472;-75
2021/04/25 01:17:19;;;;;;;2.47;1.83;;;;;;;6.64;62.43;98880.56;4987790;28;20026;-76
2021/04/25 01:19:44;;;;;;;2.78;1.90;;;;;;;6.68;62.00;98886.56;4991083;28;20033;-76
2021/04/25 01:22:10;;;;;;;2.40;1.90;;;;;;;6.72;62.19;98882.19;4989296;28;20030;-76
2021/04/25 01:24:35;;;;;;;2.40;1.83;;;;;;;6.63;62.52;98890.97;4988771;28;20041;-77
2021/04/25 01:27:01;;;;;;;2.50;1.80;;;;;;;6.57;62.55;98885.91;4988169;28;20026;-77
2021/04/25 01:29:26;;;;;;;2.40;1.90;;;;;;;6.43;63.11;98891.28;4981443;28;20036;-77
2021/04/25 01:31:52;;;;;;;3.00;1.80;;;;;;;6.28;63.70;98888.94;4991539;28;20439;-76
2021/04/25 01:34:19;;;;;;;3.45;2.25;;;;;;;6.27;63.56;98892.41;4988254;28;20034;-76
2021/04/25 01:36:45;;;;;;;3.03;1.92;;;;;;;6.34;63.55;98891.44;4970324;28;20033;-76
2021/04/25 01:39:10;;;;;;;3.05;2.20;;;;;;;6.34;63.58;98888.84;4979678;28;20030;-76
2021/04/25 01:41:38;;;;;;;3.38;2.00;;;;;;;6.31;64.12;98896.69;4988267;28;20041;-77
2021/04/25 01:44:04;;;;;;;3.38;2.08;;;;;;;6.31;63.92;98894.94;4991258;28;20396;-77
2021/04/25 01:46:29;;;;;;;3.45;2.20;;;;;;;6.17;63.99;98890.84;4990030;28;20041;-77
2021/04/25 01:48:57;;;;;;;3.53;2.15;;;;;;;6.01;64.11;98895.41;4976617;28;20039;-76
2021/04/25 01:51:22;;;;;;;;;;;;;;;5.96;64.85;98895.47;4985130;28;20114;-77
2021/04/25 01:53:47;;;;;;;2.80;1.90;;;;;;;5.97;64.57;98897.19;4987263;28;20020;-77
2021/04/25 01:56:13;;;;;;;2.42;1.90;;;;;;;5.95;64.89;98901.59;4978451;28;20030;-76
2021/04/25 01:58:38;;;;;;;4.07;2.20;;;;;;;5.92;65.40;98898.16;4970895;28;20031;-75
2021/04/25 02:01:06;;;;;;;4.18;1.98;;;;;;;6.13;64.31;98900.44;4985470;28;20031;-75
2021/04/25 02:03:32;;;;;;;3.85;2.20;;;;;;;6.03;64.36;98908.38;4989646;28;20023;-75
2021/04/25 02:05:57;;;;;;;2.92;1.98;;;;;;;6.12;64.29;98905.63;4988696;28;20074;-76
2021/04/25 02:08:23;;;;;;;2.45;1.88;;;;;;;6.10;64.73;98899.63;4988658;28;20030;-75
2021/04/25 02:10:51;;;;;;;2.70;1.92;;;;;;;6.04;64.42;98894.53;4975213;28;20038;-75
2021/04/25 02:13:18;;;;;;;2.67;1.95;;;;;;;5.88;64.91;98896.44;4972693;28;20043;-74
2021/04/25 02:15:44;;;;;;;3.20;2.05;;;;;;;5.76;66.01;98896.63;4969657;28;20031;-74
2021/04/25 02:18:09;;;;;;;3.38;2.00;;;;;;;6.08;64.93;98891.00;4971236;28;20425;-75
2021/04/25 02:20:35;;;;;;;2.65;1.90;;;;;;;6.03;65.13;98892.81;4974601;28;20039;-76
2021/04/25 02:23:03;;;;;;;2.97;2.08;;;;;;;5.83;65.18;98893.06;4969537;28;20088;-76
2021/04/25 02:25:29;;;;;;;3.63;2.10;;;;;;;5.75;65.60;98887.97;4969402;28;20031;-76
2021/04/25 02:27:55;;;;;;;2.97;2.05;;;;;;;5.49;66.23;98890.06;4974689;28;20161;-75
2021/04/25 02:30:23;;;;;;;2.70;2.05;;;;;;;5.45;67.18;98888.38;4988260;28;20550;-75
2021/04/25 02:32:49;;;;;;;3.08;1.98;;;;;;;5.37;67.80;98887.59;4988066;28;20498;-75
2021/04/25 02:35:20;;;;;;;3.10;2.15;;;;;;;5.30;68.20;98890.28;4980056;28;20039;-75
2021/04/25 02:37:46;;;;;;;3.53;2.17;;;;;;;5.40;67.55;98891.03;4974720;28;20033;-76
2021/04/25 02:40:14;;;;;;;3.28;2.45;;;;;;;5.53;67.04;98883.94;4988040;28;20053;-76
2021/04/25 02:42:42;;;;;;;3.30;2.10;;;;;;;5.51;67.33;98886.56;4988829;28;20069;-75
2021/04/25 02:45:14;;;;;;;2.88;2.00;;;;;;;5.26;67.70;98879.97;4991016;28;20367;-76
2021/04/25 02:47:40;;;;;;;2.58;2.00;;;;;;;5.12;68.23;98885.31;4989607;28;20050;-76
2021/04/25 02:50:06;;;;;;;3.38;2.03;;;;;;;4.93;68.76;98895.00;4992647;28;20034;-76
2021/04/25 02:52:31;;;;;;;3.45;2.13;;;;;;;4.90;69.30;98886.41;4983938;28;20041;-75
2021/04/25 02:54:56;;;;;;;2.60;2.03;;;;;;;4.75;70.07;98878.78;4986542;28;20037;-77
2021/04/25 02:57:24;;;;;;;3.08;2.20;;;;;;;4.68;70.69;98884.91;4988675;28;20033;-75
2021/04/25 02:59:50;;;;;;;2.80;2.20;;;;;;;4.58;70.72;98890.16;4985567;28;20031;-76
2021/04/25 03:02:15;;;;;;;3.15;2.10;;;;;;;4.53;70.86;98886.78;4986230;28;20056;-75
2021/04/25 03:04:40;;;;;;;2.65;2.10;;;;;;;4.54;71.24;98885.06;4990961;28;20026;-76
2021/04/25 03:07:06;;;;;;;3.78;2.30;;;;;;;4.52;71.64;98879.03;4992506;28;20129;-75
2021/04/25 03:09:31;;;;;;;2.83;2.03;;;;;;;4.39;71.37;98883.47;4990978;28;20022;-76
2021/04/25 03:11:56;;;;;;;3.20;2.35;;;;;;;4.62;70.91;98875.47;4991493;28;20084;-76
2021/04/25 03:14:22;;;;;;;2.88;2.30;;;;;;;4.63;71.31;98879.78;4991708;28;20067;-76
2021/04/25 03:16:49;;;;;;;3.05;2.20;;;;;;;4.50;71.13;98883.34;4991262;28;20038;-75
2021/04/25 03:19:15;;;;;;;;;;;;;;;5.48;68.42;98881.44;4995246;28;20272;-77
2021/04/25 03:21:40;;;;;;;3.25;2.15;;;;;;;4.98;69.33;98883.75;4991095;28;20137;-74
2021/04/25 03:24:06;;;;;;;2.80;2.00;;;;;;;4.77;70.47;98882.22;4985495;28;20042;-76
2021/04/25 03:26:34;;;;;;;3.38;2.38;;;;;;;4.74;70.43;98875.34;4989925;28;20137;-75
2021/04/25 03:28:59;;;;;;;;;;;;;;;5.44;68.06;98878.88;4976231;28;20030;-75
2021/04/25 03:31:24;;;;;;;3.05;2.22;;;;;;;5.08;68.84;98880.16;4985100;28;20024;-76
2021/04/25 03:33:50;;;;;;;4.18;2.35;;;;;;;4.71;69.54;98884.91;4989856;28;20034;-76
2021/04/25 03:36:15;;;;;;;3.90;2.65;;;;;;;4.49;70.63;98886.81;4990530;28;20101;-76
2021/04/25 03:38:43;;;;;;;3.00;2.25;;;;;;;4.38;72.15;98891.22;4989487;28;20037;-77
2021/04/25 03:41:08;;;;;;;;;;;;;;;4.05;71.50;98894.94;4992265;28;20034;-77
2021/04/25 03:43:33;;;;;;;2.90;2.10;;;;;;;3.82;73.02;98885.56;4981940;28;19988;-75
2021/04/25 03:45:59;;;;;;;3.15;2.17;;;;;;;3.69;73.85;98899.44;4971254;28;20022;-75
2021/04/25 03:48:26;;;;;;;3.47;2.30;;;;;;;3.68;73.72;98895.16;4986581;28;20069;-77
2021/04/25 03:50:52;;;;;;;;;;;;;;;3.55;74.64;98898.66;4991998;28;20026;-75
2021/04/25 03:53:17;;;;;;;3.05;2.30;;;;;;;3.45;75.01;98895.28;4989699;28;19925;-75
2021/04/25 03:55:42;;;;;;;3.83;2.35;;;;;;;3.42;75.92;98897.00;4984130;28;20035;-75
2021/04/25 03:58:08;;;;;;;3.20;2.40;;;;;;;3.25;75.81;98909.13;4983029;28;20530;-76
2021/04/25 04:00:33;;;;;;;2.83;2.13;;;;;;;2.98;75.72;98912.66;4990349;28;20034;-74
2021/04/25 04:02:59;;;;;;;2.75;2.20;;;;;;;2.87;76.85;98904.09;4979057;28;20484;-74
2021/04/25 04:05:29;;;;;;;3.47;2.30;;;;;;;2.72;77.50;98918.75;4986542;28;20050;-74
2021/04/25 04:07:54;;;;;;;3.85;2.60;;;;;;;2.69;78.09;98923.06;4982033;28;20098;-75
2021/04/25 04:10:20;;;;;;;2.65;2.10;;;;;;;2.63;78.72;98917.88;4972206;28;20041;-74
2021/04/25 04:12:45;;;;;;;3.58;2.30;;;;;;;2.48;78.28;98916.16;4988644;28;20033;-75
2021/04/25 04:15:11;;;;;;;3.58;2.38;;;;;;;2.50;78.64;98916.16;4989635;28;20112;-75
2021/04/25 04:17:36;;;;;;;3.22;2.22;;;;;;;2.40;79.23;98916.19;4979890;28;20023;-74
2021/04/25 04:20:03;;;;;;;3.25;2.20;;;;;;;2.32;79.23;98915.31;4970639;28;20023;-75
2021/04/25 04:22:29;;;;;;;3.60;2.50;;;;;;;2.37;79.24;98921.34;4975334;28;20122;-74
2021/04/25 04:24:54;;;;;;;4.47;2.17;;;;;;;2.34;79.32;98916.19;4979111;28;20511;-73
2021/04/25 04:27:20;;;;;;;3.47;2.15;;;;;;;2.24;79.27;98917.03;4984548;28;20043;-73
2021/04/25 04:29:45;;;;;;;3.95;2.50;;;;;;;2.19;79.86;98918.75;4974084;28;20041;-73
2021/04/25 04:32:10;;;;;;;2.83;2.08;;;;;;;2.12;79.97;98927.34;4982194;28;20552;-73
2021/04/25 04:34:37;;;;;;;3.22;2.42;;;;;;;2.03;80.18;98923.03;4989435;28;20503;-73
2021/04/25 04:37:03;;;;;;;4.10;2.63;;;;;;;2.24;80.51;98935.09;4981513;28;20018;-72
2021/04/25 04:39:28;;;;;;;3.92;2.53;;;;;;;2.25;79.38;98943.69;4989792;28;20030;-74
2021/04/25 04:41:54;;;;;;;4.03;2.50;;;;;;;2.21;79.91;98940.25;4988903;28;20033;-74
2021/04/25 04:44:19;;;;;;;3.60;2.35;;;;;;;2.16;79.89;98952.28;4991171;28;20061;-74
2021/04/25 04:46:45;;;;;;;3.75;2.58;;;;;;;2.17;79.90;98951.41;4988835;28;20397;-74
2021/04/25 04:49:10;;;;;;;3.63;2.30;;;;;;;2.21;79.90;98953.16;4971756;28;20113;-73
2021/04/25 04:51:36;;;;;;;3.05;2.40;;;;;;;2.27;79.56;98960.06;4971420;28;20026;-75
2021/04/25 04:54:01;;;;;;;3.00;2.30;;;;;;;2.29;79.58;98960.91;4971951;28;20381;-73
2021/04/25 04:56:27;;;;;;;2.75;2.15;;;;;;;2.33;79.25;98965.19;4982339;28;20088;-73
2021/04/25 04:58:52;;;;;;;2.72;2.10;;;;;;;2.40;79.63;98966.94;4986928;28;20034;-74
2021/04/25 05:01:18;;;;;;;3.67;2.40;;;;;;;2.46;79.29;98962.63;4985278;28;20027;-74
2021/04/25 05:03:43;;;;;;;3.45;2.50;;;;;;;2.57;79.35;98957.50;4992747;28;20030;-73
2021/04/25 05:06:11;;;;;;;3.05;2.38;;;;;;;2.54;79.22;98962.66;4980047;28;20042;-74
2021/04/25 05:08:36;;;;;;;3.00;2.30;;;;;;;2.57;78.97;98966.94;4979716;28;20133;-74
2021/04/25 05:11:01;;;;;;;2.97;2.17;;;;;;;2.64;78.82;98968.66;4980572;28;20042;-74
2021/04/25 05:13:27;;;;;;;3.00;2.40;;;;;;;2.70;79.08;98966.09;4983241;28;20022;-72
2021/04/25 05:15:52;;;;;;;3.20;2.30;;;;;;;2.82;78.75;98959.19;4990444;28;20026;-74
2021/04/25 05:18:20;;;;;;;3.53;2.35;;;;;;;2.97;77.98;98965.19;4979385;28;20031;-72
2021/04/25 05:20:45;;;;;;;3.50;2.28;;;;;;;3.05;77.42;98963.47;4995567;28;20369;-73
2021/04/25 05:23:11;;;;;;;2.75;2.00;;;;;;;3.09;77.17;98967.75;4985664;28;20034;-73
2021/04/25 05:25:36;;;;;;;4.20;2.45;;;;;;;3.17;77.31;98966.88;4979615;28;20042;-73
2021/04/25 05:28:02;;;;;;;4.05;2.17;;;;;;;3.35;76.39;98970.28;4980530;28;20041;-73
2021/04/25 05:30:28;;;;;;;5.30;2.38;;;;;;;3.53;76.28;98970.19;4986156;28;20030;-73
2021/04/25 05:32:56;;;;;;;3.50;2.35;;;;;;;3.71;75.95;98984.78;4989782;28;20053;-74
2021/04/25 05:35:21;;;;;;;3.80;2.58;;;;;;;3.79;75.09;98977.88;4990077;28;20492;-73
2021/04/25 05:37:47;;;;;;;4.95;3.30;;;;;;;3.95;73.76;98974.34;4980666;28;20034;-74
2021/04/25 05:40:15;;;;;;;2.88;2.10;;;;;;;4.08;74.33;98982.91;4985045;28;20034;-73
2021/04/25 05:42:41;;;;;;;3.53;2.33;;;;;;;4.24;73.02;98984.53;4987593;28;20033;-74
2021/04/25 05:45:08;;;;;;;3.60;2.42;;;;;;;4.37;73.28;98977.53;4987825;28;20037;-73
2021/04/25 05:47:34;;;;;;;3.05;2.53;;;;;;;4.53;72.20;98987.78;4983333;28;20053;-73
2021/04/25 05:50:02;;;;;;;4.30;2.53;;;;;;;4.68;71.83;98984.22;4969718;28;20027;-74
2021/04/25 05:52:28;;;;;;;3.35;2.47;;;;;;;4.84;71.25;98985.81;4980483;28;20065;-74
2021/04/25 05:54:53;;;;;;;3.33;2.25;;;;;;;5.06;70.73;99001.16;4979601;28;20113;-76
2021/04/25 05:57:18;;;;;;;3.50;2.60;;;;;;;5.23;69.89;99000.13;4981127;28;20034;-74
2021/04/25 05:59:44;;;;;;;3.38;2.50;;;;;;;5.41;69.14;98990.44;4989807;28;20035;-74
2021/04/25 06:02:12;;;;;;;5.22;2.80;;;;;;;5.60;68.31;98991.97;4989791;28;20113;-76
2021/04/25 06:04:40;;;;;;;;;;;;;;;5.83;67.72;98979.56;4989440;28;20038;-74
2021/04/25 06:07:08;;;;;;;4.63;2.97;;;;;;;6.03;67.65;98987.13;4986984;28;20284;-74
2021/04/25 06:09:34;;;;;;;4.30;2.80;;;;;;;6.19;66.74;98980.84;4977711;28;20031;-75
2021/04/25 06:11:59;;;;;;;4.03;2.97;;;;;;;6.50;66.15;98983.00;4985026;28;20118;-74
2021/04/25 06:14:24;;;;;;;4.68;3.05;;;;;;;6.72;65.21;98980.94;4989787;28;20026;-75
2021/04/25 06:16:50;;;;;;;3.95;2.90;;;;;;;6.82;64.89;98979.88;4986071;28;20465;-75
2021/04/25 06:19:18;;;;;;;3.95;2.72;;;;;;;6.98;63.78;98982.22;4988087;28;20057;-78
2021/04/25 06:21:44;;;;;;;4.60;2.60;;;;;;;7.17;63.02;98981.91;4988412;28;20041;-73
2021/04/25 06:24:10;;;;;;;4.25;2.80;;;;;;;7.27;62.25;98981.69;4994101;28;20435;-72
2021/04/25 06:26:36;;;;;;;3.17;2.30;;;;;;;7.45;61.38;98982.25;4989462;28;20026;-73
2021/04/25 06:29:04;;;;;;;4.10;2.88;;;;;;;7.52;60.77;98984.69;4982470;28;20040;-73
2021/04/25 06:31:29;;;;;;;4.65;2.42;;;;;;;7.72;60.10;98981.69;4984282;28;20496;-73
2021/04/25 06:34:00;;;;;;;3.15;2.40;;;;;;;7.78;59.50;98980.72;4989664;28;20038;-73
2021/04/25 06:36:25;;;;;;;4.57;2.95;;;;;;;7.85;59.08;98988.38;4989292;28;20461;-73
2021/04/25 06:38:51;;;;;;;3.75;2.60;;;;;;;8.12;58.24;98986.91;4980122;28;20029;-74
2021/04/25 06:41:16;;;;;;;3.38;2.38;;;;;;;8.27;57.84;98978.75;4984290;28;20031;-73
2021/04/25 06:43:42;;;;;;;3.72;2.70;;;;;;;8.07;58.97;98989.66;4991324;28;20030;-73
2021/04/25 06:46:07;;;;;;;3.67;2.58;;;;;;;8.39;58.41;98988.97;4988996;28;20077;-74
2021/04/25 06:48:32;;;;;;;2.95;2.38;;;;;;;8.62;56.70;98995.38;4986204;28;20038;-74
2021/04/25 06:50:58;;;;;;;3.38;2.42;;;;;;;8.75;55.97;98991.59;4974425;28;20104;-73
2021/04/25 06:53:28;;;;;;;4.47;2.30;;;;;;;8.93;55.62;98985.94;4982707;28;20034;-72
2021/04/25 06:55:53;;;;;;;3.58;2.42;;;;;;;9.17;55.78;98992.28;4987131;28;20039;-72
2021/04/25 06:58:19;;;;;;;3.53;2.45;;;;;;;9.26;54.51;98991.19;4990540;28;20034;-72
2021/04/25 07:00:44;;;;;;;3.28;2.38;;;;;;;9.47;54.03;98988.84;4991739;28;20030;-73
2021/04/25 07:03:09;;;;;;;3.95;2.53;;;;;;;9.66;53.81;98988.34;4992379;28;20546;-72
2021/04/25 07:05:35;;;;;;;3.40;2.28;;;;;;;9.47;52.75;98993.25;4991819;28;20041;-73
2021/04/25 07:08:00;;;;;;;2.88;2.10;;;;;;;9.86;52.82;98989.53;4991683;28;20030;-72
2021/04/25 07:10:26;;;;;;;3.63;2.60;;;;;;;9.80;52.35;98987.06;4992460;28;20054;-73
2021/04/25 07:12:52;;;;;;;3.88;2.88;;;;;;;9.71;52.02;98979.50;4977847;28;20038;-74
2021/04/25 07:15:18;;;;;;;3.30;2.50;;;;;;;9.55;52.89;98993.88;4981462;28;20066;-73
2021/04/25 07:17:43;;;;;;;3.55;2.63;;;;;;;9.75;52.53;98994.19;4976721;28;20108;-73
2021/04/25 07:20:12;;;;;;;3.85;2.67;;;;;;;9.75;51.39;98985.50;4993546;28;20034;-72
2021/04/25 07:22:38;;;;;;;4.93;2.47;;;;;;;10.08;51.70;98992.34;4983968;28;20041;-74
2021/04/25 07:25:05;;;;;;;3.25;2.55;;;;;;;10.23;50.82;98983.25;4972749;28;20039;-74
2021/04/25 07:27:30;;;;;;;4.10;2.60;;;;;;;10.61;50.81;98979.44;4979700;28;20488;-75
2021/04/25 07:29:56;;;;;;;3.88;2.60;;;;;;;10.91;50.45;98986.31;4981860;28;20033;-74
2021/04/25 07:32:21;;;;;;;3.17;2.30;;;;;;;11.08;48.71;98982.28;4997987;28;20045;-73
2021/04/25 07:34:49;;;;;;;3.55;2.50;;;;;;;11.01;48.55;98976.38;4987252;28;20067;-74
2021/04/25 07:37:17;;;;;;;;;;;;;;;11.23;49.36;98973.91;4976789;28;20022;-75
2021/04/25 07:39:44;;;;;;;3.97;2.50;;;;;;;11.31;48.39;98973.63;4978177;28;20387;-75
2021/04/25 07:42:11;;;;;;;3.22;2.50;;;;;;;11.24;48.06;98971.25;4969690;28;20066;-75
2021/04/25 07:44:40;;;;;;;3.63;2.40;;;;;;;11.39;47.63;98971.63;4980835;28;20026;-72
2021/04/25 07:47:06;;;;;;;3.50;2.42;;;;;;;11.58;47.68;98973.53;4981447;28;20037;-74
2021/04/25 07:49:32;;;;;;;3.22;2.30;;;;;;;11.83;46.98;98975.28;4969516;28;20035;-73
2021/04/25 07:51:58;;;;;;;3.40;2.55;;;;;;;12.19;46.44;98975.69;4969411;28;20033;-74
2021/04/25 07:54:24;;;;;;;3.78;2.60;;;;;;;12.07;46.33;98971.75;4975051;28;20034;-73
2021/04/25 07:56:49;;;;;;;3.60;2.28;;;;;;;12.18;46.41;98966.13;4981305;28;20030;-73
2021/04/25 07:59:14;;;;;;;3.45;2.30;;;;;;;12.30;45.16;98973.50;4985141;28;20153;-72
2021/04/25 08:01:40;;;;;;;2.78;2.13;;;;;;;12.19;44.68;98973.94;4987009;28;20504;-73
2021/04/25 08:04:05;;;;;;;2.88;2.03;;;;;;;12.66;43.39;98968.59;4986457;28;20169;-71
2021/04/25 08:06:31;;;;;;;3.60;2.20;;;;;;;12.67;44.02;98972.94;4985055;28;20119;-73
2021/04/25 08:08:56;;;;;;;3.30;2.38;;;;;;;12.84;43.69;98962.56;4980917;28;20109;-73
2021/04/25 08:11:21;;;;;;;4.45;2.20;;;;;;;12.13;43.80;98968.06;4966527;28;611840;-73
2021/04/25 08:13:49;;;;;;;3.50;2.30;;;;;;;11.76;45.31;98974.69;4982929;28;20029;-73
2021/04/25 08:16:17;;;;;;;5.18;2.50;;;;;;;12.60;43.57;98966.22;4970448;28;20101;-73
2021/04/25 08:18:42;;;;;;;2.97;2.13;;;;;;;12.99;42.54;98972.44;4987548;28;20034;-73
2021/04/25 08:21:08;;;;;;;3.40;2.30;;;;;;;13.13;42.70;98974.53;4974088;28;20034;-73
2021/04/25 08:23:36;;;;;;;3.13;2.10;;;;;;;13.37;42.56;98962.16;4982854;28;20030;-73
2021/04/25 08:26:03;;;;;;;3.25;2.20;;;;;;;12.96;41.05;98975.22;4980759;28;20100;-73
2021/04/25 08:28:29;;;;;;;2.80;2.03;;;;;;;13.30;42.57;98974.69;4973545;28;20135;-73
2021/04/25 08:30:54;;;;;;;2.60;2.08;;;;;;;13.01;42.18;98973.25;4976401;28;20038;-75
2021/04/25 08:33:20;;;;;;;2.38;1.80;;;;;;;13.60;40.53;98966.38;4979941;28;20030;-73
2021/04/25 08:35:47;;;;;;;2.55;1.95;;;;;;;13.28;40.08;98973.06;4985748;28;20027;-73
2021/04/25 08:38:15;;;;;;;3.17;2.25;;;;;;;12.96;41.24;98971.75;4985360;28;20026;-73
2021/04/25 08:40:41;;;;;;;2.95;2.00;;;;;;;13.72;40.39;98971.97;4986319;28;20109;-74
2021/04/25 08:43:10;;;;;;;3.08;2.00;;;;;;;13.74;40.26;98966.66;4986380;28;20034;-73
2021/04/25 08:45:36;;;;;;;3.17;2.00;;;;;;;14.16;39.40;98974.38;4986087;28;20037;-75
2021/04/25 08:48:04;;;;;;;3.45;2.10;;;;;;;14.00;38.73;98960.22;4974216;28;20038;-73
2021/04/25 08:50:30;;;;;;;;;;;;;;;13.62;40.52;98981.16;4974084;28;20042;-74
2021/04/25 08:52:57;;;;;;;3.95;2.10;;;;;;;13.46;40.80;98969.63;4987099;28;20351;-74
2021/04/25 08:55:23;;;;;;;2.65;1.95;;;;;;;14.06;39.70;98978.31;4983268;28;20092;-73
2021/04/25 08:57:49;;;;;;;2.70;2.10;;;;;;;13.98;39.59;98968.16;4987143;28;20026;-76
2021/04/25 09:00:16;;;;;;;2.65;2.00;;;;;;;14.40;38.30;98973.25;4982953;28;20033;-74
2021/04/25 09:02:41;;;;;;;3.03;1.98;;;;;;;14.59;38.08;98967.13;4987776;28;20038;-73
2021/04/25 09:05:07;;;;;;;2.92;1.75;;;;;;;14.58;39.00;98970.66;4985352;28;20038;-74
2021/04/25 09:07:34;;;;;;;4.57;1.77;;;;;;;14.27;37.80;98964.19;4975260;28;20043;-74
2021/04/25 09:10:02;;;;;;;2.77;1.70;;;;;;;13.75;38.93;98973.59;4972936;28;20073;-73
2021/04/25 09:12:34;;;;;;;3.65;2.00;;;;;;;13.83;38.67;98978.53;4976995;28;20533;-74
2021/04/25 09:15:00;;;;;;;2.10;1.70;;;;;;;13.33;38.29;98979.81;4988273;28;20060;-77
2021/04/25 09:17:25;;;;;;;2.35;1.90;;;;;;;14.38;37.10;98967.16;4988287;28;20480;-73
2021/04/25 09:19:57;;;;;;;2.17;1.67;;;;;;;14.00;37.41;98961.06;4980641;28;20041;-72
2021/04/25 09:22:40;;;;;;;2.10;1.60;;;;;;;14.21;36.47;98961.84;4979811;28;20029;-74
2021/04/25 09:25:08;;;;;;;2.65;1.73;;;;;;;14.51;37.52;98966.63;4981932;28;20057;-73
2021/04/25 09:27:34;;;;;;;2.33;1.70;;;;;;;13.93;36.35;98958.78;4985423;28;20042;-74
2021/04/25 09:30:00;;;;;;;2.97;1.88;;;;;;;14.62;36.00;98967.81;4984102;28;20035;-73
2021/04/25 09:32:30;;;;;;;2.38;1.70;;;;;;;15.32;35.50;98952.91;4987182;28;20027;-73
2021/04/25 09:35:11;;;;;;;2.78;1.80;;;;;;;14.54;35.88;98958.56;4991769;28;20029;-73
2021/04/25 09:37:41;;;;;;;2.78;1.70;;;;;;;15.30;36.49;98934.56;4997712;28;20026;-74
2021/04/25 09:40:08;;;;;;;2.83;1.70;;;;;;;15.90;36.00;98936.72;4983466;28;20121;-73
2021/04/25 09:42:58;;;;;;;2.38;1.70;;;;;;;15.26;36.29;98946.19;4979328;28;20074;-72
2021/04/25 09:45:35;;;;;;;2.80;1.63;;;;;;;14.92;35.04;98946.19;4986146;28;20057;-71
2021/04/25 09:48:17;;;;;;;2.40;1.67;;;;;;;15.27;33.28;98942.63;4983764;28;20045;-71
2021/04/25 09:50:42;;;;;;;2.53;1.60;;;;;;;15.20;35.50;98943.88;4967519;28;20081;-74
2021/04/25 09:53:19;;;;;;;2.92;1.90;;;;;;;15.53;33.01;98936.00;4977133;28;20046;-72
2021/04/25 09:55:56;;;;;;;2.73;2.10;;;;;;;15.69;32.67;98934.31;4991534;28;20048;-72
2021/04/25 09:58:21;;;;;;;2.55;1.80;;;;;;;15.39;34.97;98933.25;4993600;28;20272;-73
2021/04/25 10:00:51;;;;;;;2.22;1.60;;;;;;;16.48;33.36;98926.47;4998506;28;20092;-73
2021/04/25 10:03:22;;;;;;;2.28;1.67;;;;;;;15.27;32.84;98925.97;4991817;28;20081;-73
2021/04/25 10:05:57;;;;;;;2.63;1.60;;;;;;;16.33;32.19;98924.69;4991524;28;20034;-73
2021/04/25 10:08:37;;;;;;;2.38;1.70;;;;;;;16.61;31.95;98927.47;4991213;28;20026;-72
2021/04/25 10:11:05;;;;;;;2.40;1.70;;;;;;;16.33;31.29;98920.25;4992491;28;20034;-73
2021/04/25 10:13:33;;;;;;;1.77;1.38;;;;;;;16.49;30.34;98918.47;4991849;28;20033;-73
2021/04/25 10:15:59;;;;;;;2.22;1.67;;;;;;;16.61;31.74;98913.41;4993336;28;20023;-74
2021/04/25 10:18:30;;;;;;;2.50;1.65;;;;;;;16.95;31.86;98918.50;4994867;28;20031;-73
2021/04/25 10:20:57;;;;;;;2.03;1.58;;;;;;;17.01;31.21;98917.25;4984792;28;20130;-73
2021/04/25 10:23:25;;;;;;;3.03;2.10;;;;;;;16.59;31.88;98916.13;4976881;28;20027;-75
2021/04/25 10:25:52;;;;;;;2.65;1.70;;;;;;;17.08;30.17;98914.19;4988384;28;20026;-73
2021/04/25 10:28:37;;;;;;;1.73;1.50;;;;;;;17.19;31.14;98910.88;4993741;28;20041;-74
2021/04/25 10:31:10;;;;;;;3.80;2.03;;;;;;;16.37;30.29;98907.72;4992421;28;20077;-73
2021/04/25 10:34:00;;;;;;;1.80;1.58;;;;;;;16.79;32.11;98909.75;4993410;28;20050;-73
2021/04/25 10:36:44;;;;;;;2.30;1.60;;;;;;;16.94;31.65;98911.50;4993460;28;20034;-73
2021/04/25 10:39:52;;;;;;;2.40;1.60;;;;;;;17.78;29.25;98909.09;4991824;28;20117;-73
2021/04/25 10:42:23;;;;;;;1.85;1.42;;;;;;;17.33;29.68;98904.78;4992137;28;20068;-75
2021/04/25 10:45:07;;;;;;;3.25;1.70;;;;;;;17.46;29.01;98911.03;4996865;28;20405;-73
2021/04/25 10:47:33;;;;;;;3.13;1.50;;;;;;;17.24;27.21;98908.84;4990015;28;20018;-72
2021/04/25 10:50:17;;;;;;;2.75;1.60;;;;;;;16.85;28.44;98907.59;4986087;28;20077;-73
2021/04/25 10:52:47;;;;;;;1.80;1.60;;;;;;;17.22;28.43;98892.22;4991213;28;20559;-74
2021/04/25 10:55:20;;;;;;;1.98;1.50;;;;;;;17.29;30.36;98906.75;4993096;28;20022;-74
2021/04/25 10:57:55;;;;;;;2.22;1.60;;;;;;;17.90;28.66;98898.56;4991159;28;20030;-73
2021/04/25 11:00:34;;;;;;;2.28;1.70;;;;;;;16.78;29.92;98886.91;4989725;28;20029;-74
2021/04/25 11:03:09;;;;;;;1.50;1.40;;;;;;;17.98;30.15;98887.53;4990339;28;20042;-74
2021/04/25 11:08:04;;;;;;;1.77;1.48;;;;;;;17.81;28.61;98895.66;4992313;28;20034;-73
2021/04/25 11:10:47;;;;;;;2.25;1.50;;;;;;;18.17;28.87;98898.66;4991947;28;20424;-74
2021/04/25 11:13:40;;;;;;;3.25;1.50;;;;;;;17.70;28.64;98887.56;4988862;28;20045;-73
2021/04/25 11:16:06;;;;;;;2.22;1.60;;;;;;;17.47;27.67;98884.47;4991690;28;20030;-72
2021/04/25 11:19:04;;;;;;;2.03;1.40;;;;;;;19.25;25.30;98872.91;4991556;28;20030;-72
2021/04/25 11:24:01;;;;;;;1.60;1.50;;;;;;;20.00;25.88;98873.00;4990322;28;20042;-74
2021/04/25 11:26:39;;;;;;;1.77;1.20;;;;;;;20.77;25.60;98869.13;4991221;28;20041;-72
2021/04/25 11:29:10;;;;;;;1.60;1.30;;;;;;;20.78;22.83;98867.31;4990359;28;20026;-73
2021/04/25 11:31:45;;;;;;;1.23;1.02;;;;;;;22.29;21.11;98862.53;4990612;28;20492;-73
2021/04/25 11:34:32;;;;;;;1.73;1.10;;;;;;;21.70;22.80;98872.56;4990821;28;20105;-73
2021/04/25 11:37:02;;;;;;;;;;;;;;;21.64;21.54;98865.94;4990973;28;20113;-74
2021/04/25 11:39:30;;;;;;;1.90;1.30;;;;;;;20.67;23.16;98862.78;4973456;28;19916;-72
2021/04/25 11:41:57;;;;;;;3.40;1.38;;;;;;;22.02;20.70;98864.72;4977144;28;20029;-73
2021/04/25 11:44:34;;;;;;;3.15;1.20;;;;;;;21.20;22.33;98873.88;4996269;28;20040;-73
2021/04/25 11:47:05;;;;;;;3.95;1.10;;;;;;;22.46;21.70;98859.28;5000180;28;20049;-74
2021/04/25 11:49:37;;;;;;;1.85;1.20;;;;;;;23.36;18.38;98856.25;4989128;28;20093;-73